Ocean Star — VRCT3 — position and weather

sailwx.info

Track history (hours):
 
Tides and Currents Weather Stations Pressure Air Temp Water Temp Dewpoint Dewpoint Depression Visibility Wind Speed Wind Dir Waves Ship Positions

Ocean Star

Last reported at 2017-Nov-09 23:35 UTC. Time now 2017-Dec-11 00:25 UTC.
Position N 30°59' E 122°33'.
Warning: this ship's position is 31 days out of date.

Length 177 m; draft 6 m.

Type: Cargo ship. MMSI: 477797100.

Date/timePositionNaut miles runAvg speedWind from/ knotsBaromVisibWave heightAir tempDewpointWater temp
2017-Nov-09 23:35N 30°59' E 122°33'215.0
2017-Nov-09 23:26N 30°59' E 122°30'614.7
2017-Nov-09 23:00N 31°01' E 122°23'714.5
2017-Nov-09 22:30N 31°03' E 122°15'612.6
2017-Nov-09 22:00N 31°03' E 122°07'713.4
2017-Nov-09 21:30N 31°05' E 122°00'612.9
2017-Nov-09 21:00N 31°09' E 121°54'612.8
2017-Nov-09 20:30N 31°13' E 121°48'612.6
2017-Nov-09 20:00N 31°18' E 121°43'510.3
2017-Nov-09 19:30N 31°21' E 121°39'510.1
2017-Nov-09 19:00N 31°24' E 121°34'4 7.7
2017-Nov-09 18:30N 31°26' E 121°30'3 5.6
2017-Nov-09 18:00N 31°28' E 121°27'5 9.0
2017-Nov-09 17:30N 31°31' E 121°23'5 9.5
2017-Nov-09 17:00N 31°34' E 121°19'510.7
2017-Nov-09 16:30N 31°38' E 121°15'510.0
2017-Nov-09 16:00N 31°41' E 121°10'611.5
2017-Nov-09 15:29N 31°45' E 121°05'713.9
2017-Nov-09 15:00N 31°47' E 120°57'510.0
2017-Nov-09 14:29N 31°51' E 120°54'611.3
2017-Nov-09 14:00N 31°56' E 120°52'611.3
2017-Nov-09 13:30N 32°00' E 120°48'611.7
2017-Nov-09 13:00N 31°60' E 120°41'712.0
2017-Nov-09 12:23N 32°01' E 120°32'411.1
2017-Nov-09 12:00N 32°02' E 120°27'  
2017-Nov-05 21:12N 31°05' E 122°52'1 1.8
2017-Nov-05 20:46N 31°06' E 122°53'  
Track history (hours):
 
Tides and Currents Weather Stations Pressure Air Temp Water Temp Dewpoint Dewpoint Depression Visibility Wind Speed Wind Dir Waves Ship Positions

Ocean Star

Last reported at 2017-Nov-09 23:35 UTC. Time now 2017-Dec-11 00:25 UTC.
Position N 30°59' E 122°33'.
Warning: this ship's position is 31 days out of date.

Length 177 m; draft 6 m.

Type: Cargo ship. MMSI: 477797100.

Date/timePositionNaut miles runAvg speedWind from/ knotsBaromVisibWave heightAir tempDewpointWater temp
2017-Nov-09 23:35N 30°59' E 122°33'215.0
2017-Nov-09 23:26N 30°59' E 122°30'614.7
2017-Nov-09 23:00N 31°01' E 122°23'714.5
2017-Nov-09 22:30N 31°03' E 122°15'612.6
2017-Nov-09 22:00N 31°03' E 122°07'713.4
2017-Nov-09 21:30N 31°05' E 122°00'612.9
2017-Nov-09 21:00N 31°09' E 121°54'612.8
2017-Nov-09 20:30N 31°13' E 121°48'612.6
2017-Nov-09 20:00N 31°18' E 121°43'510.3
2017-Nov-09 19:30N 31°21' E 121°39'510.1
2017-Nov-09 19:00N 31°24' E 121°34'4 7.7
2017-Nov-09 18:30N 31°26' E 121°30'3 5.6
2017-Nov-09 18:00N 31°28' E 121°27'5 9.0
2017-Nov-09 17:30N 31°31' E 121°23'5 9.5
2017-Nov-09 17:00N 31°34' E 121°19'510.7
2017-Nov-09 16:30N 31°38' E 121°15'510.0
2017-Nov-09 16:00N 31°41' E 121°10'611.5
2017-Nov-09 15:29N 31°45' E 121°05'713.9
2017-Nov-09 15:00N 31°47' E 120°57'510.0
2017-Nov-09 14:29N 31°51' E 120°54'611.3
2017-Nov-09 14:00N 31°56' E 120°52'611.3
2017-Nov-09 13:30N 32°00' E 120°48'611.7
2017-Nov-09 13:00N 31°60' E 120°41'712.0
2017-Nov-09 12:23N 32°01' E 120°32'411.1
2017-Nov-09 12:00N 32°02' E 120°27'  
2017-Nov-05 21:12N 31°05' E 122°52'1 1.8
2017-Nov-05 20:46N 31°06' E 122°53'  

Dump ship's entire track history